Time;durP1;ratioP1;P1;durP2;ratioP2;P2;SDS_P1;SDS_P2;PMS_P1;PMS_P2;Temp;Humidity;BMP_temperature;BMP_pressure;BME280_temperature;BME280_humidity;BME280_pressure;Samples;Min_cycle;Max_cycle;Signal;HPM_P1;HPM_P2
2021/07/30 00:01:59;;;;;;;10.32;6.33;;;;;;;20.73;59.92;100156.34;1726767;81;25822;-76
2021/07/30 00:04:29;;;;;;;10.85;6.08;;;;;;;20.73;59.96;100159.59;1732101;81;25876;-76
2021/07/30 00:07:00;;;;;;;10.18;5.78;;;;;;;20.74;59.90;100158.52;1744910;81;25959;-76
2021/07/30 00:09:30;;;;;;;10.28;6.30;;;;;;;20.74;59.98;100156.59;1694622;81;25879;-75
2021/07/30 00:12:04;;;;;;;14.68;6.05;;;;;;;20.73;59.90;100152.25;1657101;81;26514;-76
2021/07/30 00:14:34;;;;;;;8.10;5.65;;;;;;;20.73;59.91;100159.59;1744560;81;26165;-76
2021/07/30 00:17:06;;;;;;;7.72;5.22;;;;;;;20.70;59.87;100151.41;1724095;81;27467;-76
2021/07/30 00:19:36;;;;;;;8.18;5.55;;;;;;;20.68;60.07;100152.22;1697286;81;26439;-76
2021/07/30 00:22:10;;;;;;;7.85;5.55;;;;;;;20.69;60.14;100154.40;1746845;81;25891;-76
2021/07/30 00:24:39;;;;;;;8.35;5.85;;;;;;;20.69;60.53;100152.50;1749713;81;26584;-75
2021/07/30 00:27:10;;;;;;;8.38;6.20;;;;;;;20.69;60.58;100159.31;1733459;81;25748;-76
2021/07/30 00:29:37;;;;;;;9.13;5.42;;;;;;;20.67;60.71;100153.84;1707990;81;27439;-76
2021/07/30 00:32:07;;;;;;;9.25;6.28;;;;;;;20.67;60.88;100156.57;1752244;81;25969;-76
2021/07/30 00:34:44;;;;;;;6.65;5.90;;;;;;;20.65;60.87;100155.48;1722833;82;25573;-76
2021/07/30 00:37:16;;;;;;;9.70;5.90;;;;;;;20.64;61.15;100151.64;1715227;82;25879;-76
2021/07/30 00:39:47;;;;;;;7.60;5.50;;;;;;;20.62;61.17;100149.19;1670701;82;26707;-76
2021/07/30 00:42:16;;;;;;;6.50;5.90;;;;;;;20.60;61.16;100141.83;1674937;82;29047;-76
2021/07/30 00:44:45;;;;;;;7.40;6.05;;;;;;;20.57;61.30;100143.70;1738331;81;25829;-76
2021/07/30 00:47:16;;;;;;;9.60;5.60;;;;;;;20.57;61.45;100136.91;1677820;82;26487;-76
2021/07/30 00:49:45;;;;;;;7.58;5.80;;;;;;;20.59;61.67;100148.91;1693364;81;26298;-76
2021/07/30 00:52:16;;;;;;;10.50;6.20;;;;;;;20.57;61.75;100149.14;1697964;81;26030;-75
2021/07/30 00:54:45;;;;;;;12.20;6.58;;;;;;;20.56;62.12;100142.61;1749340;80;27517;-76
2021/07/30 00:57:15;;;;;;;8.60;6.35;;;;;;;20.52;62.11;100142.33;1749361;81;25708;-76
2021/07/30 00:59:47;;;;;;;9.23;6.30;;;;;;;20.51;62.55;100137.13;1740012;80;25756;-76
2021/07/30 01:02:17;;;;;;;9.55;5.65;;;;;;;20.50;63.08;100140.95;1752774;80;26467;-76
2021/07/30 01:04:46;;;;;;;7.08;5.92;;;;;;;20.48;63.26;100144.48;1742957;81;25924;-75
2021/07/30 01:07:13;;;;;;;8.15;6.42;;;;;;;20.48;63.01;100138.50;1721838;81;28319;-76
2021/07/30 01:09:40;;;;;;;10.45;6.17;;;;;;;20.50;63.01;100140.95;1675627;81;25993;-76
2021/07/30 01:12:09;;;;;;;8.25;5.50;;;;;;;20.49;63.09;100133.86;1702885;81;26253;-76
2021/07/30 01:14:36;;;;;;;8.83;6.20;;;;;;;20.49;63.19;100133.33;1721982;81;25858;-75
2021/07/30 01:17:04;;;;;;;11.15;6.53;;;;;;;20.50;63.32;100129.53;1733904;82;25854;-76
2021/07/30 01:19:31;;;;;;;11.78;6.28;;;;;;;20.48;63.50;100131.70;1726252;80;27478;-76
2021/07/30 01:22:03;;;;;;;7.85;6.42;;;;;;;20.47;63.73;100129.22;1744742;81;25958;-76
2021/07/30 01:24:30;;;;;;;8.40;5.50;;;;;;;20.47;63.96;100130.58;1720174;81;25761;-76
2021/07/30 01:26:57;;;;;;;8.85;6.30;;;;;;;20.44;64.05;100129.23;1690417;81;26001;-76
2021/07/30 01:29:27;;;;;;;9.18;5.80;;;;;;;20.43;63.98;100131.66;1729029;81;26276;-75
2021/07/30 01:31:53;;;;;;;10.80;6.15;;;;;;;20.42;64.13;100132.72;1761234;80;28301;-76
2021/07/30 01:34:20;;;;;;;7.33;5.67;;;;;;;20.41;64.06;100128.91;1732321;81;25824;-76
2021/07/30 01:36:47;;;;;;;7.85;6.25;;;;;;;20.37;64.07;100132.71;1684860;81;25835;-76
2021/07/30 01:39:14;;;;;;;7.60;5.95;;;;;;;20.37;64.13;100125.08;1710718;81;26948;-76
2021/07/30 01:41:41;;;;;;;7.00;5.65;;;;;;;20.36;63.77;100124.82;1760991;81;25293;-76
2021/07/30 01:44:08;;;;;;;9.68;5.58;;;;;;;20.37;63.75;100122.36;1732454;81;27516;-76
2021/07/30 01:46:35;;;;;;;9.00;6.17;;;;;;;20.37;63.60;100119.64;1681116;80;25793;-75
2021/07/30 01:49:02;;;;;;;10.40;6.20;;;;;;;20.34;63.38;100120.98;1712197;81;25803;-75
2021/07/30 01:51:29;;;;;;;8.08;5.95;;;;;;;20.31;63.17;100120.16;1744920;81;25807;-76
2021/07/30 01:53:56;;;;;;;8.23;5.58;;;;;;;20.30;63.09;100111.70;1734598;81;25686;-75
2021/07/30 01:56:23;;;;;;;11.97;6.10;;;;;;;20.28;63.23;100117.95;1698140;81;28165;-76
2021/07/30 01:58:50;;;;;;;8.03;5.83;;;;;;;20.26;63.16;100120.65;1696821;82;25892;-76
2021/07/30 02:01:17;;;;;;;8.75;5.95;;;;;;;20.21;63.21;100121.98;1729184;80;25859;-76
2021/07/30 02:03:44;;;;;;;8.10;6.20;;;;;;;20.20;63.42;100132.55;1704596;80;25873;-76
2021/07/30 02:06:11;;;;;;;10.15;6.35;;;;;;;20.16;63.62;100125.98;1689767;82;25841;-75
2021/07/30 02:08:38;;;;;;;6.45;5.40;;;;;;;20.14;63.89;100120.00;1699148;81;28277;-76
2021/07/30 02:11:12;;;;;;;8.25;6.05;;;;;;;20.11;63.95;100124.58;1751921;81;25836;-76
2021/07/30 02:16:25;;;;;;;8.28;6.03;;;;;;;20.08;64.26;100132.72;1704533;81;25856;-75
2021/07/30 02:18:52;;;;;;;10.43;6.20;;;;;;;20.05;64.49;100138.69;1694895;81;25841;-75
2021/07/30 02:21:19;;;;;;;8.75;6.50;;;;;;;20.03;64.57;100136.77;1737100;82;28216;-76
2021/07/30 02:23:47;;;;;;;10.75;6.17;;;;;;;20.01;64.70;100140.29;1704840;81;25896;-76
2021/07/30 02:26:14;;;;;;;11.63;7.10;;;;;;;19.99;64.52;100143.25;1696016;81;26458;-75
2021/07/30 02:28:41;;;;;;;9.10;6.78;;;;;;;19.96;64.40;100139.70;1699624;81;26582;-76
2021/07/30 02:31:08;;;;;;;9.20;6.50;;;;;;;19.90;64.29;100137.20;1751942;81;25734;-76
2021/07/30 02:33:35;;;;;;;9.03;7.25;;;;;;;19.86;64.18;100141.52;1699057;82;28122;-76
2021/07/30 02:36:02;;;;;;;9.30;6.53;;;;;;;19.86;64.21;100142.88;1675147;82;25853;-76
2021/07/30 02:38:29;;;;;;;9.40;7.58;;;;;;;19.88;64.41;100142.08;1738654;80;25820;-75
2021/07/30 02:40:56;;;;;;;12.43;7.03;;;;;;;19.90;64.55;100137.20;1733832;82;26524;-76
2021/07/30 02:43:23;;;;;;;13.20;6.85;;;;;;;19.89;64.47;100133.66;1742503;80;25807;-76
2021/07/30 02:45:50;;;;;;;8.00;6.80;;;;;;;19.88;64.46;100136.64;1675186;81;27583;-76
2021/07/30 02:48:17;;;;;;;10.65;7.22;;;;;;;19.87;64.43;100134.98;1734461;80;25855;-76
2021/07/30 02:50:44;;;;;;;9.30;6.53;;;;;;;19.87;64.49;100135.81;1749843;81;26057;-76
2021/07/30 02:53:11;;;;;;;10.48;6.53;;;;;;;19.86;64.52;100134.19;1720745;81;25953;-76
2021/07/30 02:55:38;;;;;;;9.78;6.55;;;;;;;19.85;64.57;100130.34;1689357;82;25922;-75
2021/07/30 02:58:05;;;;;;;8.78;6.75;;;;;;;19.82;64.46;100131.67;1696591;81;27571;-76
2021/07/30 03:00:32;;;;;;;7.50;6.55;;;;;;;19.79;64.54;100133.58;1759399;81;25868;-76
2021/07/30 03:02:59;;;;;;;11.12;6.70;;;;;;;19.79;64.72;100139.54;1687762;81;25762;-76
2021/07/30 03:05:26;;;;;;;13.25;6.67;;;;;;;19.76;64.76;100138.16;1710463;81;26406;-76
2021/07/30 03:07:53;;;;;;;9.60;6.97;;;;;;;19.72;64.80;100143.83;1705539;83;25813;-75
2021/07/30 03:10:20;;;;;;;9.95;6.80;;;;;;;19.65;64.94;100151.91;1754515;80;28211;-75
2021/07/30 03:12:47;;;;;;;9.65;6.45;;;;;;;19.59;65.15;100146.16;1685293;81;25900;-75
2021/07/30 03:15:14;;;;;;;8.35;7.25;;;;;;;19.54;65.32;100154.24;1706632;81;26695;-76
2021/07/30 03:17:41;;;;;;;11.43;7.97;;;;;;;19.52;65.57;100148.24;1704300;83;25913;-75
2021/07/30 03:20:09;;;;;;;11.33;8.13;;;;;;;19.52;65.63;100152.32;1689469;84;26081;-76
2021/07/30 03:22:36;;;;;;;9.43;6.60;;;;;;;19.54;65.78;100150.17;1682443;81;28166;-76
2021/07/30 03:25:05;;;;;;;10.05;7.10;;;;;;;19.55;66.27;100148.55;1719250;81;25343;-75
2021/07/30 03:27:32;;;;;;;8.65;6.50;;;;;;;19.54;66.65;100150.99;1751943;81;25827;-76
2021/07/30 03:29:59;;;;;;;10.25;6.25;;;;;;;19.52;66.94;100150.44;1729140;81;25852;-76
2021/07/30 03:32:26;;;;;;;7.75;6.55;;;;;;;19.46;66.84;100146.55;1653658;84;26056;-75
2021/07/30 03:34:53;;;;;;;9.90;6.70;;;;;;;19.39;66.96;100148.11;1621076;84;27591;-75
2021/07/30 03:37:20;;;;;;;9.00;6.65;;;;;;;19.38;66.80;100146.45;1754965;81;25926;-75
2021/07/30 03:39:47;;;;;;;8.58;7.17;;;;;;;19.40;66.84;100152.98;1764238;81;25828;-76
2021/07/30 03:42:14;;;;;;;10.98;7.15;;;;;;;19.37;66.68;100154.34;1625454;84;26189;-75
2021/07/30 03:44:41;;;;;;;8.95;6.72;;;;;;;19.36;66.68;100154.04;1699643;80;25809;-76
2021/07/30 03:47:08;;;;;;;7.35;6.47;;;;;;;19.36;66.51;100150.50;1751850;81;28159;-75
2021/07/30 03:49:35;;;;;;;9.95;6.95;;;;;;;19.34;66.55;100158.05;1704404;83;25780;-75
2021/07/30 03:52:03;;;;;;;8.00;6.53;;;;;;;19.35;66.61;100159.73;1628532;84;26669;-75
2021/07/30 03:54:30;;;;;;;10.88;7.40;;;;;;;19.36;66.65;100160.00;1651950;84;25882;-76
2021/07/30 03:56:57;;;;;;;8.68;6.62;;;;;;;19.36;66.50;100161.36;1749917;81;25799;-75
2021/07/30 03:59:24;;;;;;;9.60;6.90;;;;;;;19.35;66.74;100163.81;1756326;81;28092;-76
2021/07/30 04:01:51;;;;;;;10.48;7.33;;;;;;;19.40;66.55;100167.92;1675819;81;26636;-75
2021/07/30 04:04:18;;;;;;;9.73;6.40;;;;;;;19.43;66.43;100169.61;1712770;82;25738;-75
2021/07/30 04:06:47;;;;;;;9.93;6.10;;;;;;;19.52;66.51;100169.45;1715796;80;26609;-76
2021/07/30 04:09:15;;;;;;;8.80;6.15;;;;;;;19.65;66.12;100160.06;1760594;80;25930;-75
2021/07/30 04:11:42;;;;;;;8.85;6.62;;;;;;;19.66;65.95;100165.23;1757791;80;26959;-76
2021/07/30 04:14:09;;;;;;;9.30;5.72;;;;;;;19.66;65.81;100159.80;1714939;82;25687;-76
2021/07/30 04:16:38;;;;;;;9.38;6.60;;;;;;;19.67;65.62;100163.34;1751102;81;25871;-75
2021/07/30 04:19:07;;;;;;;8.03;6.12;;;;;;;19.68;65.68;100159.00;1774042;80;25821;-76
2021/07/30 04:21:35;;;;;;;11.28;6.62;;;;;;;19.71;65.77;100156.32;1757540;81;25863;-75
2021/07/30 04:24:02;;;;;;;9.65;6.87;;;;;;;19.74;65.84;100159.33;1731984;79;27521;-75
2021/07/30 04:26:29;;;;;;;7.47;6.30;;;;;;;19.73;65.91;100155.52;1749651;81;26481;-76
2021/07/30 04:28:56;;;;;;;9.03;7.20;;;;;;;19.71;65.81;100153.60;1721615;81;25809;-76
2021/07/30 04:31:23;;;;;;;9.88;6.15;;;;;;;19.71;65.71;100157.67;1666002;82;26827;-76
2021/07/30 04:33:50;;;;;;;7.92;6.17;;;;;;;19.75;65.55;100147.93;1721975;81;25851;-76
2021/07/30 04:36:18;;;;;;;8.05;6.45;;;;;;;19.79;65.53;100146.33;1757635;81;27563;-75
2021/07/30 04:38:46;;;;;;;10.85;6.15;;;;;;;19.83;65.30;100152.89;1739094;82;25767;-76
2021/07/30 04:41:13;;;;;;;10.58;6.60;;;;;;;19.88;65.34;100147.52;1671768;80;25784;-76
2021/07/30 04:43:40;;;;;;;8.63;6.55;;;;;;;19.94;65.22;100154.63;1697714;81;26035;-75
2021/07/30 04:46:16;;;;;;;11.90;6.62;;;;;;;19.99;65.19;100154.69;1768314;80;25921;-75
2021/07/30 04:48:43;;;;;;;9.08;5.80;;;;;;;20.05;65.23;100150.92;1746971;81;28329;-76
2021/07/30 04:51:12;;;;;;;10.08;6.25;;;;;;;20.08;64.97;100153.11;1684965;81;26138;-76
2021/07/30 04:53:39;;;;;;;9.80;6.47;;;;;;;20.08;64.76;100157.75;1715372;81;26550;-76
2021/07/30 04:56:06;;;;;;;11.15;6.40;;;;;;;20.10;64.93;100149.62;1720535;81;25842;-75
2021/07/30 04:58:33;;;;;;;7.72;6.33;;;;;;;20.16;65.10;100150.47;1753584;81;25897;-76
2021/07/30 05:01:05;;;;;;;11.30;6.85;;;;;;;20.21;65.07;100155.98;1676951;81;27459;-76
2021/07/30 05:03:32;;;;;;;12.70;6.58;;;;;;;20.27;65.17;100160.38;1731981;81;25917;-76
2021/07/30 05:05:59;;;;;;;11.93;6.42;;;;;;;20.30;65.08;100156.59;1780296;79;26581;-76
2021/07/30 05:08:26;;;;;;;15.10;7.00;;;;;;;20.37;65.08;100151.75;1780379;80;25862;-76
2021/07/30 05:10:53;;;;;;;9.80;6.72;;;;;;;20.44;65.06;100148.27;1733484;79;25878;-76
2021/07/30 05:13:20;;;;;;;11.43;6.12;;;;;;;20.50;64.87;100149.94;1715071;81;28094;-76
2021/07/30 05:15:47;;;;;;;9.48;6.22;;;;;;;20.56;64.60;100155.69;1778153;80;26270;-76
2021/07/30 05:18:14;;;;;;;8.65;7.10;;;;;;;20.63;64.74;100154.92;1783083;80;25834;-76
2021/07/30 05:20:41;;;;;;;12.07;6.70;;;;;;;20.69;64.19;100157.12;1709732;80;25848;-76
2021/07/30 05:23:09;;;;;;;8.53;6.20;;;;;;;20.72;63.97;100156.05;1684448;81;25927;-75
2021/07/30 05:25:36;;;;;;;16.23;6.35;;;;;;;20.79;63.74;100154.45;1762446;81;27636;-76
2021/07/30 05:28:04;;;;;;;7.72;5.58;;;;;;;20.85;63.67;100153.39;1746807;80;26557;-76
2021/07/30 05:30:31;;;;;;;9.43;6.78;;;;;;;20.92;63.46;100153.98;1723724;79;26480;-76
2021/07/30 05:32:58;;;;;;;9.68;5.53;;;;;;;21.03;63.51;100149.42;1707119;80;26590;-76
2021/07/30 05:35:25;;;;;;;7.90;5.40;;;;;;;21.12;63.19;100156.01;1779625;80;26355;-76
2021/07/30 05:37:52;;;;;;;9.70;6.15;;;;;;;21.16;62.69;100153.02;1779680;80;27525;-76
2021/07/30 05:40:19;;;;;;;8.08;5.87;;;;;;;21.27;62.91;100157.42;1717691;80;26432;-76
2021/07/30 05:42:46;;;;;;;15.78;8.80;;;;;;;21.32;61.92;100161.55;1726611;80;26025;-76
2021/07/30 05:45:13;;;;;;;12.47;7.28;;;;;;;21.33;60.95;100157.72;1752210;80;26498;-76
2021/07/30 05:47:40;;;;;;;16.70;9.13;;;;;;;21.32;61.17;100157.45;1778170;80;25971;-76
2021/07/30 05:50:09;;;;;;;20.52;10.93;;;;;;;21.31;60.50;100151.19;1717919;80;28162;-76
2021/07/30 05:52:35;;;;;;;12.95;8.05;;;;;;;21.31;60.49;100161.25;1725118;80;25770;-76
2021/07/30 05:55:03;;;;;;;15.58;8.80;;;;;;;21.29;60.57;100153.36;1780839;80;25850;-75
2021/07/30 05:57:33;;;;;;;10.40;6.35;;;;;;;21.38;60.85;100161.27;1778936;80;26584;-76
2021/07/30 06:00:03;;;;;;;10.68;5.95;;;;;;;21.44;60.40;100170.30;1707773;81;25859;-76
2021/07/30 06:02:32;;;;;;;15.03;8.10;;;;;;;21.53;60.26;100162.41;1692737;81;28131;-76
2021/07/30 06:04:59;;;;;;;15.38;9.88;;;;;;;21.57;59.58;100163.51;1737180;81;25791;-76
2021/07/30 06:07:26;;;;;;;17.25;10.30;;;;;;;21.62;59.20;100164.33;1745832;81;25915;-76
2021/07/30 06:09:53;;;;;;;14.55;7.97;;;;;;;21.67;59.03;100166.25;1722101;80;26592;-76
2021/07/30 06:12:20;;;;;;;15.58;7.10;;;;;;;21.72;58.91;100173.08;1722917;80;25779;-76
2021/07/30 06:14:47;;;;;;;13.28;6.33;;;;;;;21.83;59.55;100162.51;1778492;80;28135;-76
2021/07/30 06:17:14;;;;;;;11.93;6.25;;;;;;;21.97;59.74;100171.78;1785946;79;25949;-76
2021/07/30 06:19:41;;;;;;;14.47;8.30;;;;;;;22.07;59.86;100164.42;1685474;81;25817;-75
2021/07/30 06:22:08;;;;;;;11.53;6.22;;;;;;;22.06;58.31;100170.98;1690886;81;25849;-75
2021/07/30 06:24:39;;;;;;;11.75;6.53;;;;;;;22.05;58.44;100173.42;1762004;80;25741;-76
2021/07/30 06:27:06;;;;;;;11.12;6.40;;;;;;;22.06;58.70;100165.53;1755439;81;32589;-75
2021/07/30 06:29:33;;;;;;;12.07;7.22;;;;;;;22.09;58.42;100172.35;1735439;79;25937;-76
2021/07/30 06:32:00;;;;;;;7.55;5.30;;;;;;;22.09;58.80;100169.05;1757502;81;25743;-76
2021/07/30 06:34:27;;;;;;;8.85;4.92;;;;;;;22.17;59.78;100164.44;1722962;81;25720;-76
2021/07/30 06:36:56;;;;;;;9.88;5.50;;;;;;;22.30;58.97;100167.16;1728247;81;25841;-76
2021/07/30 06:39:24;;;;;;;5.85;5.12;;;;;;;22.36;58.73;100168.80;1753711;80;28197;-76
2021/07/30 06:41:52;;;;;;;9.43;5.40;;;;;;;22.41;58.68;100161.94;1780531;80;25669;-76
2021/07/30 06:44:19;;;;;;;9.30;5.10;;;;;;;22.43;58.60;100165.78;1731787;81;25785;-76
2021/07/30 06:46:46;;;;;;;10.08;5.22;;;;;;;22.44;58.44;100162.77;1696111;81;25817;-76
2021/07/30 06:49:13;;;;;;;11.10;5.17;;;;;;;22.47;58.45;100166.87;1731899;79;25836;-76
2021/07/30 06:51:40;;;;;;;9.80;5.65;;;;;;;22.50;58.71;100158.11;1749070;80;27408;-76
2021/07/30 06:54:07;;;;;;;8.70;5.30;;;;;;;22.60;59.18;100162.24;1736017;81;26388;-76
2021/07/30 06:56:34;;;;;;;6.75;5.97;;;;;;;22.71;58.87;100163.86;1693982;81;25884;-76
2021/07/30 06:59:01;;;;;;;12.05;6.35;;;;;;;22.75;58.12;100164.38;1733518;80;25900;-76
2021/07/30 07:01:28;;;;;;;6.90;5.22;;;;;;;22.75;58.12;100167.10;1749387;80;25869;-76
2021/07/30 07:03:55;;;;;;;8.63;5.55;;;;;;;22.80;58.12;100169.00;1693769;82;27212;-76
2021/07/30 07:06:22;;;;;;;13.72;5.45;;;;;;;22.86;57.40;100172.02;1678529;81;25801;-76
2021/07/30 07:08:49;;;;;;;8.68;5.20;;;;;;;22.91;57.15;100172.81;1690657;82;25886;-76
2021/07/30 07:11:16;;;;;;;8.63;5.12;;;;;;;22.92;56.69;100169.54;1739370;81;25903;-76
2021/07/30 07:13:43;;;;;;;6.75;4.95;;;;;;;22.95;57.09;100163.50;1742445;80;26632;-76
2021/07/30 07:16:11;;;;;;;10.70;4.67;;;;;;;22.99;57.49;100165.94;1730810;81;28560;-76
2021/07/30 07:18:38;;;;;;;6.42;4.92;;;;;;;23.07;57.35;100166.76;1683720;82;26113;-76
2021/07/30 07:21:05;;;;;;;10.40;4.83;;;;;;;23.17;57.92;100162.61;1752848;81;25925;-75
2021/07/30 07:23:32;;;;;;;8.73;4.70;;;;;;;23.26;56.13;100159.56;1733481;82;25802;-76
2021/07/30 07:26:00;;;;;;;9.45;5.08;;;;;;;23.26;55.00;100164.20;1696690;81;25906;-76
2021/07/30 07:28:27;;;;;;;6.42;4.12;;;;;;;23.28;55.19;100164.75;1687992;82;28441;-76
2021/07/30 07:30:55;;;;;;;10.48;5.33;;;;;;;23.35;55.51;100157.89;1755801;80;25939;-76
2021/07/30 07:33:22;;;;;;;8.55;4.97;;;;;;;23.40;55.27;100160.61;1721375;81;25956;-76
2021/07/30 07:35:49;;;;;;;8.78;5.78;;;;;;;23.49;55.14;100160.84;1716694;80;26619;-76
2021/07/30 07:38:16;;;;;;;10.60;4.90;;;;;;;23.52;55.42;100157.55;1682340;82;25839;-76
2021/07/30 07:40:45;;;;;;;11.63;5.22;;;;;;;23.51;54.83;100156.73;1749466;81;28132;-76
2021/07/30 07:43:13;;;;;;;10.43;5.00;;;;;;;23.52;55.16;100154.82;1741674;81;25963;-76
2021/07/30 07:45:42;;;;;;;23.65;6.42;;;;;;;23.50;54.70;100151.55;1706117;80;37142;-76
2021/07/30 07:48:09;;;;;;;7.00;5.15;;;;;;;23.54;54.66;100156.72;1717939;81;25858;-76
2021/07/30 07:50:36;;;;;;;7.87;4.47;;;;;;;23.57;55.04;100153.41;1718244;81;26602;-76
2021/07/30 07:53:16;;;;;;;9.35;5.42;;;;;;;23.61;54.47;100153.10;1738364;82;27625;-76
2021/07/30 07:55:44;;;;;;;9.18;5.15;;;;;;;23.64;54.00;100156.11;1720424;80;34933;-76
2021/07/30 07:58:12;;;;;;;7.95;5.30;;;;;;;23.75;54.80;100157.68;1725848;81;26677;-77
2021/07/30 08:00:40;;;;;;;9.10;4.90;;;;;;;23.84;54.24;100152.42;1713027;81;26621;-77
2021/07/30 08:03:07;;;;;;;12.00;4.87;;;;;;;23.91;54.69;100158.38;1759986;80;25844;-76
2021/07/30 08:05:36;;;;;;;7.10;5.55;;;;;;;23.98;54.67;100158.87;1720045;81;27471;-76
2021/07/30 08:08:03;;;;;;;7.67;4.45;;;;;;;24.05;54.86;100164.88;1729631;81;26489;-76
2021/07/30 08:10:30;;;;;;;7.00;4.75;;;;;;;24.13;54.99;100141.55;1756445;81;25830;-76
2021/07/30 08:12:57;;;;;;;8.13;4.55;;;;;;;24.23;53.96;100146.95;1719764;81;26597;-76
2021/07/30 08:15:24;;;;;;;6.37;4.35;;;;;;;24.19;53.49;100146.69;1699557;80;26196;-76
2021/07/30 08:17:51;;;;;;;11.85;4.37;;;;;;;24.19;53.32;100156.27;1732115;81;27595;-76
2021/07/30 08:20:18;;;;;;;6.87;4.40;;;;;;;24.19;52.92;100154.90;1728403;81;25865;-76
2021/07/30 08:22:46;;;;;;;7.00;4.67;;;;;;;24.20;53.53;100155.17;1729359;81;26536;-76
2021/07/30 08:25:13;;;;;;;10.15;4.78;;;;;;;24.19;52.78;100149.42;1694560;81;25819;-76
2021/07/30 08:27:40;;;;;;;7.92;4.33;;;;;;;24.18;51.31;100156.02;1726425;80;25831;-77
2021/07/30 08:30:08;;;;;;;6.35;4.70;;;;;;;24.18;51.72;100151.09;1728683;81;27566;-76
2021/07/30 08:32:35;;;;;;;6.62;4.05;;;;;;;24.23;51.13;100152.42;1721292;81;25371;-76
2021/07/30 08:35:03;;;;;;;11.63;3.67;;;;;;;24.23;50.62;100151.06;1701691;81;25860;-76
2021/07/30 08:37:30;;;;;;;7.12;3.67;;;;;;;24.28;51.23;100150.45;1727179;80;26547;-76
2021/07/30 08:39:57;;;;;;;8.10;3.80;;;;;;;24.38;51.15;100143.50;1732687;81;26008;-76
2021/07/30 08:42:24;;;;;;;6.33;4.08;;;;;;;24.53;51.33;100139.79;1738859;81;27409;-76
2021/07/30 08:44:51;;;;;;;6.55;3.50;;;;;;;24.64;51.37;100138.58;1747566;81;25854;-76
2021/07/30 08:47:23;;;;;;;7.42;4.30;;;;;;;24.76;51.70;100140.97;1697736;81;25397;-76
2021/07/30 08:49:50;;;;;;;8.43;3.40;;;;;;;24.76;51.38;100139.05;1718283;81;25908;-76
2021/07/30 08:52:18;;;;;;;6.33;3.70;;;;;;;24.78;50.35;100142.86;1777906;80;26708;-76
2021/07/30 08:54:50;;;;;;;8.35;3.15;;;;;;;24.76;50.42;100134.12;1698809;80;27341;-77
2021/07/30 08:57:17;;;;;;;3.58;2.95;;;;;;;24.82;50.03;100135.14;1728284;81;25932;-76
2021/07/30 08:59:44;;;;;;;5.53;2.50;;;;;;;24.88;49.80;100127.67;1721642;80;25949;-76
2021/07/30 09:02:11;;;;;;;9.15;3.55;;;;;;;24.95;49.60;100132.25;1750444;81;26586;-76
2021/07/30 09:04:38;;;;;;;5.42;3.30;;;;;;;25.01;49.57;100135.19;1711188;79;25976;-76
2021/07/30 09:07:06;;;;;;;5.78;2.92;;;;;;;25.01;48.63;100129.70;1718523;81;27653;-76
2021/07/30 09:09:34;;;;;;;6.17;3.20;;;;;;;25.02;49.28;100128.61;1753647;79;25873;-77
2021/07/30 09:12:05;;;;;;;3.65;2.83;;;;;;;25.04;49.45;100128.55;1730605;81;26488;-76
2021/07/30 09:14:41;;;;;;;;;;;;;;;25.11;48.73;100123.54;1710167;81;25869;-76
2021/07/30 09:17:08;;;;;;;4.40;2.35;;;;;;;25.15;46.51;100119.09;1776807;80;25831;-76
2021/07/30 09:19:35;;;;;;;3.35;2.72;;;;;;;25.12;46.70;100117.52;1780466;80;27537;-76
2021/07/30 09:22:10;;;;;;;4.00;2.52;;;;;;;25.14;45.96;100122.14;1707570;81;25919;-76
2021/07/30 09:24:43;;;;;;;8.18;3.15;;;;;;;25.08;45.33;100115.92;1756834;81;25921;-77
2021/07/30 09:27:12;;;;;;;5.33;3.12;;;;;;;25.09;45.81;100120.28;1728115;81;25834;-77
2021/07/30 09:29:40;;;;;;;5.05;2.20;;;;;;;25.14;46.60;100116.11;1762613;81;25843;-76
2021/07/30 09:32:14;;;;;;;6.20;2.70;;;;;;;25.24;45.86;100120.08;1718065;81;28137;-77
2021/07/30 09:34:51;;;;;;;6.87;2.55;;;;;;;25.19;45.37;100116.61;1749975;80;25848;-77
2021/07/30 09:37:26;;;;;;;3.87;2.40;;;;;;;25.18;45.52;100114.41;1745194;80;26609;-77
2021/07/30 09:39:54;;;;;;;5.55;3.12;;;;;;;25.09;44.02;100110.69;1775388;80;25943;-76
2021/07/30 09:42:31;;;;;;;7.87;2.67;;;;;;;25.04;45.04;100112.11;1755343;80;25958;-76
2021/07/30 09:45:04;;;;;;;6.00;2.52;;;;;;;25.09;44.64;100107.95;1727864;81;28643;-76
2021/07/30 09:47:35;;;;;;;6.05;2.55;;;;;;;25.14;45.28;100106.52;1709688;80;25960;-76
2021/07/30 09:50:07;;;;;;;5.58;2.83;;;;;;;25.16;44.85;100105.67;1751825;81;25798;-76
2021/07/30 09:52:41;;;;;;;5.17;2.75;;;;;;;25.23;45.18;100101.98;1723247;81;26414;-76
2021/07/30 09:55:11;;;;;;;4.30;3.08;;;;;;;25.23;45.24;100099.83;1733598;79;25759;-76
2021/07/30 09:57:41;;;;;;;8.40;3.05;;;;;;;25.15;43.70;100093.61;1756758;80;27516;-76
2021/07/30 10:00:14;;;;;;;5.53;3.02;;;;;;;25.04;44.84;100097.61;1778224;80;25727;-76
2021/07/30 10:02:46;;;;;;;5.35;2.35;;;;;;;25.06;44.76;100091.28;1722392;80;25697;-77
2021/07/30 10:05:20;;;;;;;7.67;2.55;;;;;;;25.09;44.99;100090.12;1683021;82;26378;-76
2021/07/30 10:07:47;;;;;;;6.67;3.08;;;;;;;25.15;43.69;100089.49;1729152;82;25906;-76
2021/07/30 10:12:48;;;;;;;2.30;2.10;;;;;;;25.45;44.28;100092.42;1725182;81;26013;-76
2021/07/30 10:15:16;;;;;;;7.75;2.50;;;;;;;25.58;42.37;100087.53;1766852;80;25820;-76
2021/07/30 10:17:49;;;;;;;5.85;2.20;;;;;;;25.62;42.73;100089.97;1750676;81;25883;-77
2021/07/30 10:20:21;;;;;;;5.37;2.60;;;;;;;25.65;42.30;100080.58;1737574;82;25801;-77
2021/07/30 10:23:07;;;;;;;4.17;2.25;;;;;;;25.73;42.62;100075.77;1752024;81;27450;-77
2021/07/30 10:25:42;;;;;;;4.55;2.58;;;;;;;25.78;42.07;100070.22;1697688;81;26611;-76
2021/07/30 10:28:20;;;;;;;4.37;2.22;;;;;;;25.82;41.35;100070.42;1738266;82;25890;-77
2021/07/30 10:31:02;;;;;;;4.08;2.60;;;;;;;25.80;42.49;100068.53;1755135;81;25842;-77
2021/07/30 10:33:38;;;;;;;7.70;2.62;;;;;;;25.85;42.75;100060.23;1674913;81;25997;-77
2021/07/30 10:36:12;;;;;;;5.22;2.52;;;;;;;25.89;42.61;100061.25;1712268;82;28193;-77
2021/07/30 10:38:40;;;;;;;5.42;2.17;;;;;;;25.91;41.94;100058.47;1756278;80;25962;-77
2021/07/30 10:41:12;;;;;;;5.12;2.35;;;;;;;25.91;42.52;100057.10;1758378;81;25837;-77
2021/07/30 10:44:03;;;;;;;8.33;2.42;;;;;;;25.84;40.37;100055.84;1745032;80;25999;-78
2021/07/30 10:46:30;;;;;;;8.78;3.22;;;;;;;25.77;41.14;100060.92;1704426;81;25736;-77
2021/07/30 10:48:57;;;;;;;5.80;2.27;;;;;;;25.72;40.78;100051.39;1712769;82;27555;-77
2021/07/30 10:51:30;;;;;;;2.30;1.87;;;;;;;25.66;41.52;100051.22;1701675;81;26592;-77
2021/07/30 10:54:02;;;;;;;3.85;2.17;;;;;;;25.74;42.45;100041.75;1686758;81;25919;-77
2021/07/30 10:56:34;;;;;;;3.80;1.90;;;;;;;25.84;41.75;100040.20;1729933;81;26502;-76
2021/07/30 10:59:04;;;;;;;6.15;2.62;;;;;;;25.91;41.59;100035.70;1770043;80;25817;-77
2021/07/30 11:01:42;;;;;;;6.42;2.27;;;;;;;25.98;42.04;100041.62;1749622;81;27525;-77
2021/07/30 11:04:13;;;;;;;2.42;2.00;;;;;;;26.03;41.34;100029.98;1717203;79;25746;-77
2021/07/30 11:06:52;;;;;;;3.37;2.45;;;;;;;26.03;40.50;100025.86;1689631;82;25921;-77
2021/07/30 11:09:26;;;;;;;6.35;2.40;;;;;;;25.94;40.29;100014.49;1713702;81;26462;-76
2021/07/30 11:12:05;;;;;;;3.60;2.08;;;;;;;25.93;40.66;100021.94;1708087;82;25805;-77
2021/07/30 11:14:45;;;;;;;4.22;2.45;;;;;;;25.86;39.63;100021.50;1730744;81;27542;-77
2021/07/30 11:17:15;;;;;;;3.15;2.52;;;;;;;25.84;41.72;100024.28;1716462;81;25836;-78
2021/07/30 11:19:49;;;;;;;3.83;2.40;;;;;;;25.97;41.68;100021.59;1718259;81;25864;-77
2021/07/30 11:22:20;;;;;;;4.90;2.62;;;;;;;26.11;42.13;100016.72;1737765;81;26520;-77
2021/07/30 11:24:55;;;;;;;5.87;2.15;;;;;;;26.16;41.38;100024.83;1672372;81;25854;-77
2021/07/30 11:27:25;;;;;;;5.10;2.10;;;;;;;26.08;41.35;100010.41;1726432;81;27376;-77
2021/07/30 11:29:55;;;;;;;3.22;2.40;;;;;;;25.95;41.73;100012.02;1734984;81;26049;-77
2021/07/30 11:32:24;;;;;;;5.00;2.55;;;;;;;25.90;41.99;100007.98;1753404;80;26500;-76
2021/07/30 11:34:56;;;;;;;;;;;;;;;25.89;41.16;100005.00;1725498;81;25793;-77
2021/07/30 11:37:30;;;;;;;5.45;3.40;;;;;;;25.78;41.22;100010.41;1717155;81;25536;-76